createdAt,value
2022-08-24T00:01:05.463Z,5.70
2022-08-24T00:03:34.658Z,9.63
2022-08-24T00:06:01.528Z,7.88
2022-08-24T00:08:28.032Z,6.50
2022-08-24T00:10:54.493Z,6.47
2022-08-24T00:13:20.941Z,7.68
2022-08-24T00:15:47.597Z,8.50
2022-08-24T00:18:14.244Z,11.98
2022-08-24T00:20:45.016Z,8.48
2022-08-24T00:25:38.425Z,8.98
2022-08-24T00:28:05.183Z,10.38
2022-08-24T00:30:31.771Z,11.85
2022-08-24T00:32:58.270Z,8.07
2022-08-24T00:35:24.971Z,9.82
2022-08-24T00:37:52.180Z,8.00
2022-08-24T00:40:29.260Z,11.05
2022-08-24T00:42:56.457Z,7.60
2022-08-24T00:45:24.897Z,7.32
2022-08-24T00:47:59.112Z,7.13
2022-08-24T00:50:29.748Z,7.80
2022-08-24T00:52:58.140Z,8.23
2022-08-24T00:55:30.617Z,7.57
2022-08-24T00:57:59.823Z,9.45
2022-08-24T01:00:28.696Z,8.30
2022-08-24T01:06:38.909Z,9.75
2022-08-24T01:09:05.572Z,7.88
2022-08-24T01:11:34.180Z,16.08
2022-08-24T01:14:02.327Z,8.50
2022-08-24T01:16:47.650Z,7.75
2022-08-24T01:19:24.496Z,9.02
2022-08-24T01:21:58.974Z,8.73
2022-08-24T01:24:25.417Z,10.68
2022-08-24T01:26:51.825Z,8.73
2022-08-24T01:29:19.856Z,8.77
2022-08-24T01:31:50.266Z,10.38
2022-08-24T01:34:17.289Z,9.93
2022-08-24T01:36:45.961Z,11.43
2022-08-24T01:39:17.287Z,9.55
2022-08-24T01:41:44.276Z,10.82
2022-08-24T01:44:11.305Z,12.77
2022-08-24T01:46:38.583Z,8.25
2022-08-24T01:49:05.475Z,8.40
2022-08-24T01:51:32.882Z,6.18
2022-08-24T01:54:02.528Z,8.20
2022-08-24T01:56:31.068Z,10.07
2022-08-24T01:58:59.922Z,8.57
2022-08-24T02:01:27.196Z,11.23
2022-08-24T02:03:53.708Z,9.45
2022-08-24T02:06:21.020Z,13.60
2022-08-24T02:08:47.477Z,11.60
2022-08-24T02:11:15.042Z,9.85
2022-08-24T02:13:42.452Z,9.00
2022-08-24T02:16:09.294Z,11.52
2022-08-24T02:18:36.397Z,8.40
2022-08-24T02:21:02.792Z,9.93
2022-08-24T02:23:29.335Z,14.23
2022-08-24T02:25:56.232Z,9.95
2022-08-24T02:28:23.141Z,8.23
2022-08-24T02:30:50.031Z,9.90
2022-08-24T02:33:17.049Z,6.40
2022-08-24T02:35:43.422Z,7.40
2022-08-24T02:38:10.152Z,10.77
2022-08-24T02:40:37.915Z,9.90
2022-08-24T02:43:05.903Z,7.88
2022-08-24T02:45:32.796Z,14.32
2022-08-24T02:48:00.494Z,6.97
2022-08-24T02:50:27.615Z,9.60
2022-08-24T02:52:54.364Z,9.32
2022-08-24T02:55:21.117Z,9.23
2022-08-24T02:57:50.879Z,11.57
2022-08-24T03:00:19.292Z,8.32
2022-08-24T03:02:52.608Z,11.80
2022-08-24T03:05:20.302Z,10.27
2022-08-24T03:07:46.896Z,13.63
2022-08-24T03:10:13.680Z,15.52
2022-08-24T03:12:40.610Z,10.20
2022-08-24T03:15:07.928Z,9.02
2022-08-24T03:17:35.041Z,19.88
2022-08-24T03:20:03.293Z,16.45
2022-08-24T03:22:29.882Z,25.48
2022-08-24T03:24:56.364Z,19.70
2022-08-24T03:27:22.953Z,25.45
2022-08-24T03:29:49.900Z,29.25
2022-08-24T03:32:16.790Z,25.55
2022-08-24T03:34:46.354Z,33.22
2022-08-24T03:37:12.794Z,29.88
2022-08-24T03:39:39.391Z,41.15
2022-08-24T03:42:07.639Z,49.03
2022-08-24T03:44:34.354Z,34.05
2022-08-24T03:47:00.834Z,42.60
2022-08-24T03:49:29.209Z,37.65
2022-08-24T03:51:55.696Z,22.58
2022-08-24T03:54:22.994Z,28.67
2022-08-24T03:56:49.892Z,38.83
2022-08-24T03:59:19.817Z,23.13
2022-08-24T04:01:50.036Z,28.48
2022-08-24T04:04:16.489Z,25.23
2022-08-24T04:06:46.666Z,41.72
2022-08-24T04:09:13.266Z,30.95
2022-08-24T04:11:43.713Z,30.23
2022-08-24T04:14:20.241Z,23.02
2022-08-24T04:16:58.206Z,23.27
2022-08-24T04:19:30.846Z,30.95
2022-08-24T04:21:58.985Z,29.60
2022-08-24T04:24:26.050Z,30.63
2022-08-24T04:26:52.848Z,23.98
2022-08-24T04:29:20.383Z,31.20
2022-08-24T04:31:51.222Z,31.10
2022-08-24T04:34:18.404Z,20.15
2022-08-24T04:36:46.117Z,31.50
2022-08-24T04:39:13.525Z,26.23
2022-08-24T04:42:03.225Z,23.27
2022-08-24T04:44:36.024Z,23.83
2022-08-24T04:47:02.490Z,24.25
2022-08-24T04:49:29.964Z,25.98
2022-08-24T04:51:56.518Z,25.10
2022-08-24T04:54:22.976Z,33.40
2022-08-24T04:57:01.432Z,52.30
2022-08-24T04:59:27.822Z,75.75
2022-08-24T05:01:54.600Z,572.10
2022-08-24T05:04:21.275Z,500.95
2022-08-24T05:06:47.801Z,246.18
2022-08-24T05:09:20.365Z,386.80
2022-08-24T05:11:50.081Z,56.78
2022-08-24T05:14:23.606Z,51.70
2022-08-24T05:16:52.961Z,135.60
2022-08-24T05:19:23.154Z,112.50
2022-08-24T05:21:49.869Z,128.43
2022-08-24T05:24:16.367Z,76.25
2022-08-24T05:26:43.591Z,243.45
2022-08-24T05:29:10.820Z,136.98
2022-08-24T05:31:44.459Z,159.75
2022-08-24T05:34:12.233Z,67.50
2022-08-24T05:36:39.541Z,41.35
2022-08-24T05:39:11.386Z,22.88
2022-08-24T05:41:44.152Z,24.60
2022-08-24T05:44:18.421Z,82.78
2022-08-24T05:46:46.329Z,44.70
2022-08-24T05:49:12.888Z,23.42
2022-08-24T05:51:40.219Z,18.73
2022-08-24T05:54:09.131Z,19.60
2022-08-24T05:56:49.334Z,59.45
2022-08-24T05:59:17.953Z,22.65
2022-08-24T06:01:45.515Z,18.63
2022-08-24T06:04:12.842Z,28.23
2022-08-24T06:06:39.272Z,22.63
2022-08-24T06:09:05.740Z,55.42
2022-08-24T06:11:34.535Z,32.58
2022-08-24T06:14:07.589Z,82.95
2022-08-24T06:16:37.868Z,118.93
2022-08-24T06:19:04.872Z,30.02
2022-08-24T06:21:32.942Z,28.08
2022-08-24T06:23:59.911Z,40.63
2022-08-24T06:26:49.021Z,39.47
2022-08-24T06:29:17.291Z,36.90
2022-08-24T06:31:46.650Z,32.85
2022-08-24T06:34:14.322Z,34.67
2022-08-24T06:36:41.255Z,34.17
2022-08-24T06:39:10.107Z,31.02
2022-08-24T06:41:40.058Z,27.05
2022-08-24T06:44:10.232Z,34.58
2022-08-24T06:46:47.592Z,29.50
2022-08-24T06:49:14.369Z,28.52
2022-08-24T06:51:40.835Z,25.08
2022-08-24T06:54:08.229Z,28.23
2022-08-24T06:56:35.921Z,24.30
2022-08-24T06:59:04.112Z,27.48
2022-08-24T07:01:31.194Z,27.67
2022-08-24T07:03:59.192Z,19.77
2022-08-24T07:06:44.122Z,21.77
2022-08-24T07:09:10.705Z,21.48
2022-08-24T07:11:37.140Z,20.00
2022-08-24T07:14:04.263Z,25.00
2022-08-24T07:16:31.079Z,21.15
2022-08-24T07:19:01.616Z,24.27
2022-08-24T07:21:29.028Z,23.08
2022-08-24T07:23:56.929Z,24.02
2022-08-24T07:26:25.567Z,22.75
2022-08-24T07:29:04.958Z,19.63
2022-08-24T07:31:36.267Z,20.73
2022-08-24T07:34:11.646Z,19.60
2022-08-24T07:36:44.330Z,19.88
2022-08-24T07:39:11.844Z,22.00
2022-08-24T07:41:56.699Z,18.88
2022-08-24T07:44:27.168Z,20.98
2022-08-24T07:46:54.807Z,20.08
2022-08-24T07:49:36.176Z,20.65
2022-08-24T07:52:04.499Z,22.55
2022-08-24T07:54:30.920Z,19.00
2022-08-24T07:56:59.432Z,21.42
2022-08-24T07:59:26.453Z,20.17
2022-08-24T08:01:52.985Z,18.35
2022-08-24T08:04:22.125Z,21.17
2022-08-24T08:06:48.613Z,21.45
2022-08-24T08:09:15.255Z,17.75
2022-08-24T08:11:42.845Z,19.60
2022-08-24T08:14:09.297Z,20.20
2022-08-24T08:16:35.982Z,19.45
2022-08-24T08:19:10.456Z,19.20
2022-08-24T08:22:06.540Z,16.92
2022-08-24T08:24:38.974Z,17.25
2022-08-24T08:27:06.096Z,19.70
2022-08-24T08:29:40.786Z,17.50
2022-08-24T08:32:12.297Z,15.57
2022-08-24T08:34:40.749Z,16.70
2022-08-24T08:37:09.797Z,21.27
2022-08-24T08:39:38.501Z,14.95
2022-08-24T08:42:38.221Z,15.95
2022-08-24T08:45:22.934Z,17.17
2022-08-24T08:48:17.263Z,16.17
2022-08-24T08:50:49.884Z,14.02
2022-08-24T08:53:35.187Z,14.75
2022-08-24T08:56:03.063Z,14.82
2022-08-24T08:58:32.818Z,14.18
2022-08-24T09:01:05.255Z,12.25
2022-08-24T09:03:52.472Z,11.57
2022-08-24T09:07:07.164Z,13.80
2022-08-24T09:09:37.251Z,12.82
2022-08-24T09:12:15.689Z,12.25
2022-08-24T09:14:49.446Z,14.13
2022-08-24T09:17:33.735Z,12.13
2022-08-24T09:20:08.948Z,12.30
2022-08-24T09:22:43.012Z,12.80
2022-08-24T09:25:26.666Z,11.32
2022-08-24T09:28:15.469Z,11.05
2022-08-24T09:31:06.194Z,12.77
2022-08-24T09:33:41.229Z,10.30
2022-08-24T09:36:08.262Z,10.80
2022-08-24T09:38:40.651Z,10.07
2022-08-24T09:41:20.540Z,11.10
2022-08-24T09:43:58.369Z,11.38
2022-08-24T09:49:05.669Z,11.52
2022-08-24T09:51:48.802Z,11.05
2022-08-24T09:54:26.068Z,11.85
2022-08-24T09:57:13.256Z,10.88
2022-08-24T09:59:46.908Z,12.57
2022-08-24T10:02:28.566Z,11.40
2022-08-24T10:05:07.286Z,9.98
2022-08-24T10:07:33.720Z,13.45
2022-08-24T10:10:19.038Z,17.05
2022-08-24T10:12:57.210Z,12.43
2022-08-24T10:15:27.916Z,11.80
2022-08-24T10:18:18.024Z,13.95
2022-08-24T10:21:03.381Z,11.43
2022-08-24T10:23:29.697Z,12.85
2022-08-24T10:26:01.044Z,12.70
2022-08-24T10:28:46.103Z,10.70
2022-08-24T10:31:18.198Z,10.63
2022-08-24T10:34:04.879Z,14.80
2022-08-24T10:36:57.494Z,15.65
2022-08-24T10:39:42.463Z,10.05
2022-08-24T10:42:46.714Z,12.25
2022-08-24T10:45:17.833Z,12.40
2022-08-24T10:47:54.899Z,12.82
2022-08-24T10:50:31.131Z,10.80
2022-08-24T10:53:04.600Z,11.05
2022-08-24T10:55:32.556Z,11.57
2022-08-24T10:58:11.152Z,7.95
2022-08-24T11:00:37.880Z,9.88
2022-08-24T11:03:15.640Z,9.23
2022-08-24T11:05:45.548Z,8.57
2022-08-24T11:08:21.673Z,12.55
2022-08-24T11:11:04.520Z,11.93
2022-08-24T11:13:30.917Z,10.43
2022-08-24T11:16:00.148Z,13.60
2022-08-24T11:18:37.623Z,12.98
2022-08-24T11:21:04.534Z,11.40
2022-08-24T11:23:40.053Z,9.40
2022-08-24T11:26:13.280Z,12.85
2022-08-24T11:28:44.221Z,13.60
2022-08-24T11:31:19.625Z,13.82
2022-08-24T11:33:49.914Z,11.95
2022-08-24T11:36:21.361Z,11.77
2022-08-24T11:38:48.599Z,10.52
2022-08-24T11:41:29.645Z,14.63
2022-08-24T11:44:03.628Z,15.00
2022-08-24T11:46:50.475Z,11.50
2022-08-24T11:49:17.004Z,10.90
2022-08-24T11:51:52.540Z,12.18
2022-08-24T11:54:25.205Z,8.60
2022-08-24T11:56:59.376Z,13.45
2022-08-24T11:59:35.538Z,8.85
2022-08-24T12:02:08.291Z,12.40
2022-08-24T12:04:44.161Z,10.93
2022-08-24T12:07:29.123Z,8.48
2022-08-24T12:10:01.398Z,11.63
2022-08-24T12:12:27.777Z,12.85
2022-08-24T12:15:00.597Z,10.77
2022-08-24T12:17:30.572Z,12.20
2022-08-24T12:20:01.410Z,11.80
2022-08-24T12:22:28.763Z,9.43
2022-08-24T12:24:56.938Z,8.43
2022-08-24T12:27:29.400Z,10.80
2022-08-24T12:30:05.639Z,9.07
2022-08-24T12:32:43.439Z,8.57
2022-08-24T12:35:18.829Z,11.02
2022-08-24T12:37:47.768Z,14.13
2022-08-24T12:40:27.191Z,7.00
2022-08-24T12:43:09.026Z,9.27
2022-08-24T12:45:37.851Z,10.27
2022-08-24T12:48:15.909Z,9.50
2022-08-24T12:50:51.560Z,8.70
2022-08-24T12:53:36.329Z,8.02
2022-08-24T12:56:05.765Z,8.38
2022-08-24T12:58:53.915Z,9.10
2022-08-24T13:01:25.593Z,7.60
2022-08-24T13:04:22.204Z,9.30
2022-08-24T13:06:59.789Z,7.93
2022-08-24T13:09:29.959Z,7.47
2022-08-24T13:11:58.721Z,9.02
2022-08-24T13:14:26.561Z,10.25
2022-08-24T13:16:56.314Z,8.35
2022-08-24T13:19:22.732Z,7.65
2022-08-24T13:21:51.844Z,10.05
2022-08-24T13:24:27.744Z,7.25
2022-08-24T13:26:58.105Z,8.95
2022-08-24T13:29:26.995Z,10.38
2022-08-24T13:31:55.745Z,6.40
2022-08-24T13:34:24.761Z,8.85
2022-08-24T13:37:10.430Z,8.23
2022-08-24T13:39:43.683Z,8.15
2022-08-24T13:42:13.316Z,7.68
2022-08-24T13:44:55.292Z,9.50
2022-08-24T13:47:31.310Z,7.45
2022-08-24T13:50:09.774Z,8.40
2022-08-24T13:52:45.039Z,7.57
2022-08-24T13:55:20.597Z,8.40
2022-08-24T13:57:52.532Z,7.82
2022-08-24T14:00:39.567Z,6.88
2022-08-24T14:03:28.212Z,7.15
2022-08-24T14:05:57.503Z,7.93
2022-08-24T14:08:29.920Z,6.50
2022-08-24T14:11:10.079Z,6.28
2022-08-24T14:13:53.814Z,6.75
2022-08-24T14:16:42.165Z,9.13
2022-08-24T14:19:10.064Z,7.00
2022-08-24T14:21:40.394Z,7.63
2022-08-24T14:24:11.053Z,6.97
2022-08-24T14:26:38.206Z,8.65
2022-08-24T14:29:20.049Z,8.10
2022-08-24T14:32:01.458Z,8.65
2022-08-24T14:34:48.655Z,7.45
2022-08-24T14:37:16.343Z,9.05
2022-08-24T14:39:47.748Z,8.68
2022-08-24T14:42:15.788Z,5.38
2022-08-24T14:44:58.106Z,8.40
2022-08-24T14:47:43.408Z,7.10
2022-08-24T14:50:23.942Z,6.82
2022-08-24T14:53:02.710Z,9.38
2022-08-24T14:55:37.897Z,9.43
2022-08-24T14:58:21.568Z,7.75
2022-08-24T15:01:14.253Z,8.10
2022-08-24T15:03:41.362Z,8.48
2022-08-24T15:06:26.967Z,10.52
2022-08-24T15:08:55.812Z,9.75
2022-08-24T15:11:24.013Z,8.23
2022-08-24T15:13:55.451Z,7.00
2022-08-24T15:16:27.397Z,9.80
2022-08-24T15:19:00.494Z,11.80
2022-08-24T15:21:45.575Z,7.18
2022-08-24T15:24:13.953Z,9.15
2022-08-24T15:26:55.031Z,9.95
2022-08-24T15:29:23.028Z,9.25
2022-08-24T15:32:04.962Z,8.25
2022-08-24T15:34:45.398Z,11.45
2022-08-24T15:37:37.967Z,15.15
2022-08-24T15:40:15.577Z,10.63
2022-08-24T15:42:42.345Z,8.50
2022-08-24T15:45:09.185Z,10.77
2022-08-24T15:47:37.398Z,9.63
2022-08-24T15:50:13.795Z,9.30
2022-08-24T15:52:42.796Z,9.90
2022-08-24T15:55:35.543Z,8.07
2022-08-24T15:58:20.812Z,10.05
2022-08-24T16:01:06.050Z,10.90
2022-08-24T16:04:08.167Z,11.75
2022-08-24T16:06:37.436Z,10.00
2022-08-24T16:09:10.246Z,9.40
2022-08-24T16:11:41.003Z,12.00
2022-08-24T16:14:12.021Z,11.63
2022-08-24T16:16:39.861Z,9.45
2022-08-24T16:19:08.359Z,12.40
2022-08-24T16:21:37.902Z,10.15
2022-08-24T16:24:09.981Z,10.95
2022-08-24T16:26:37.603Z,13.57
2022-08-24T16:29:04.270Z,9.60
2022-08-24T16:31:40.817Z,11.05
2022-08-24T16:34:21.223Z,12.02
2022-08-24T16:36:48.415Z,10.40
2022-08-24T16:39:14.842Z,9.75
2022-08-24T16:41:41.965Z,10.13
2022-08-24T16:44:10.793Z,10.88
2022-08-24T16:46:38.264Z,10.30
2022-08-24T16:49:04.764Z,11.52
2022-08-24T16:51:39.066Z,11.85
2022-08-24T16:54:11.890Z,11.45
2022-08-24T16:56:38.317Z,8.43
2022-08-24T16:59:04.751Z,9.75
2022-08-24T17:01:31.228Z,7.38
2022-08-24T17:03:57.886Z,9.70
2022-08-24T17:06:24.322Z,8.50
2022-08-24T17:08:50.805Z,9.02
2022-08-24T17:11:17.469Z,9.07
2022-08-24T17:13:49.744Z,8.20
2022-08-24T17:16:18.004Z,12.35
2022-08-24T17:18:44.540Z,10.60
2022-08-24T17:21:11.038Z,11.18
2022-08-24T17:23:38.142Z,10.40
2022-08-24T17:26:06.991Z,8.98
2022-08-24T17:28:36.852Z,10.05
2022-08-24T17:31:03.309Z,7.87
2022-08-24T17:33:29.834Z,8.27
2022-08-24T17:35:56.252Z,7.35
2022-08-24T17:38:23.304Z,9.65
2022-08-24T17:40:50.114Z,10.80
2022-08-24T17:43:16.513Z,8.77
2022-08-24T17:45:43.030Z,11.60
2022-08-24T17:48:09.895Z,8.40
2022-08-24T17:50:40.442Z,12.48
2022-08-24T17:53:08.927Z,8.02
2022-08-24T17:55:35.475Z,8.80
2022-08-24T17:58:02.015Z,7.95
2022-08-24T18:00:28.733Z,11.68
2022-08-24T18:02:55.145Z,7.93
2022-08-24T18:05:21.821Z,10.45
2022-08-24T18:07:54.610Z,7.82
2022-08-24T18:10:23.766Z,7.65
2022-08-24T18:12:50.644Z,8.75
2022-08-24T18:15:17.205Z,10.27
2022-08-24T18:17:44.844Z,11.43
2022-08-24T18:20:13.289Z,10.57
2022-08-24T18:22:47.687Z,7.22
2022-08-24T18:25:20.340Z,11.32
2022-08-24T18:27:47.999Z,7.85
2022-08-24T18:30:20.053Z,9.32
2022-08-24T18:32:52.454Z,11.77
2022-08-24T18:35:19.490Z,7.20
2022-08-24T18:37:45.906Z,7.57
2022-08-24T18:40:21.264Z,7.38
2022-08-24T18:42:50.546Z,9.63
2022-08-24T18:45:17.253Z,10.43
2022-08-24T18:47:43.632Z,10.10
2022-08-24T18:50:10.101Z,11.20
2022-08-24T18:52:40.347Z,8.57
2022-08-24T18:55:09.398Z,6.85
2022-08-24T18:57:35.868Z,10.25
2022-08-24T19:00:03.395Z,7.13
2022-08-24T19:02:30.411Z,8.63
2022-08-24T19:05:10.799Z,8.55
2022-08-24T19:07:39.122Z,8.20
2022-08-24T19:10:07.319Z,8.98
2022-08-24T19:12:35.728Z,8.57
2022-08-24T19:15:03.134Z,8.20
2022-08-24T19:17:29.949Z,7.38
2022-08-24T19:19:56.952Z,11.95
2022-08-24T19:22:23.520Z,8.77
2022-08-24T19:24:49.887Z,7.60
2022-08-24T19:27:16.598Z,9.15
2022-08-24T19:29:55.470Z,9.00
2022-08-24T19:32:23.997Z,9.68
2022-08-24T19:34:51.356Z,11.38
2022-08-24T19:37:18.442Z,10.38
2022-08-24T19:39:45.974Z,8.27
2022-08-24T19:42:15.739Z,11.18
2022-08-24T19:45:01.355Z,8.70
2022-08-24T19:47:27.726Z,9.80
2022-08-24T19:49:54.678Z,8.43
2022-08-24T19:52:21.062Z,10.93
2022-08-24T19:54:48.114Z,8.00
2022-08-24T19:57:26.502Z,9.07
2022-08-24T19:59:57.637Z,12.25
2022-08-24T20:02:24.126Z,9.35
2022-08-24T20:04:50.502Z,8.98
2022-08-24T20:07:17.517Z,8.48
2022-08-24T20:09:43.862Z,10.48
2022-08-24T20:12:10.361Z,9.07
2022-08-24T20:14:37.544Z,8.23
2022-08-24T20:17:05.365Z,7.70
2022-08-24T20:19:33.695Z,10.23
2022-08-24T20:22:00.128Z,8.48
2022-08-24T20:24:27.538Z,7.30
2022-08-24T20:26:53.925Z,10.30
2022-08-24T20:29:20.793Z,7.43
2022-08-24T20:31:50.554Z,6.82
2022-08-24T20:34:18.554Z,8.85
2022-08-24T20:36:48.599Z,10.20
2022-08-24T20:39:17.972Z,11.63
2022-08-24T20:41:45.323Z,7.85
2022-08-24T20:44:11.945Z,7.25
2022-08-24T20:46:39.871Z,9.52
2022-08-24T20:49:07.275Z,7.57
2022-08-24T20:51:34.329Z,7.03
2022-08-24T20:54:06.887Z,9.13
2022-08-24T20:59:07.402Z,11.80
2022-08-24T21:01:34.827Z,8.73
2022-08-24T21:04:05.498Z,7.50
2022-08-24T21:06:35.500Z,8.77
2022-08-24T21:09:08.123Z,9.93
2022-08-24T21:11:51.686Z,6.38
2022-08-24T21:17:30.953Z,7.68
2022-08-24T21:20:02.612Z,9.93
2022-08-24T21:22:36.743Z,9.50
2022-08-24T21:25:20.121Z,7.82
2022-08-24T21:27:47.760Z,8.27
2022-08-24T21:30:18.691Z,9.05
2022-08-24T21:35:30.367Z,7.20
2022-08-24T21:37:57.226Z,11.32
2022-08-24T21:40:25.326Z,6.68
2022-08-24T21:42:51.913Z,8.75
2022-08-24T21:45:18.839Z,9.48
2022-08-24T21:47:45.372Z,6.80
2022-08-24T21:50:12.638Z,9.57
2022-08-24T21:52:39.270Z,8.82
2022-08-24T21:55:09.640Z,6.18
2022-08-24T21:57:39.413Z,12.00
2022-08-24T22:00:08.675Z,8.98
2022-08-24T22:02:35.163Z,8.00
2022-08-24T22:05:01.649Z,9.77
2022-08-24T22:07:28.099Z,10.57
2022-08-24T22:09:55.146Z,12.00
2022-08-24T22:12:21.640Z,8.30
2022-08-24T22:14:48.077Z,9.30
2022-08-24T22:17:14.522Z,9.60
2022-08-24T22:19:40.894Z,7.97
2022-08-24T22:22:07.291Z,9.52
2022-08-24T22:24:33.799Z,7.68
2022-08-24T22:27:00.562Z,9.05
2022-08-24T22:29:26.996Z,8.70
2022-08-24T22:31:53.555Z,10.95
2022-08-24T22:34:21.231Z,8.95
2022-08-24T22:36:48.562Z,13.40
2022-08-24T22:39:14.995Z,9.90
2022-08-24T22:41:41.563Z,9.05
2022-08-24T22:44:20.929Z,11.98
2022-08-24T22:46:52.231Z,10.55
2022-08-24T22:49:20.620Z,11.30
2022-08-24T22:51:47.699Z,10.13
2022-08-24T22:54:14.200Z,9.13
2022-08-24T22:56:42.811Z,10.48
2022-08-24T22:59:13.203Z,7.93
2022-08-24T23:01:41.171Z,10.70
2022-08-24T23:04:09.358Z,10.55
2022-08-24T23:06:35.920Z,9.27
2022-08-24T23:09:03.124Z,7.63
2022-08-24T23:11:29.584Z,9.48
2022-08-24T23:13:57.220Z,13.02
2022-08-24T23:16:24.530Z,9.50
2022-08-24T23:19:09.500Z,8.02
2022-08-24T23:21:35.933Z,12.93
2022-08-24T23:24:02.559Z,10.55
2022-08-24T23:26:29.194Z,10.15
2022-08-24T23:28:55.574Z,10.85
2022-08-24T23:31:22.200Z,10.27
2022-08-24T23:33:48.696Z,10.45
2022-08-24T23:36:18.059Z,9.05
2022-08-24T23:38:44.560Z,9.63
2022-08-24T23:41:13.265Z,8.02
2022-08-24T23:43:40.690Z,11.10
2022-08-24T23:46:07.205Z,9.00
2022-08-24T23:48:33.961Z,10.65
2022-08-24T23:51:00.690Z,13.52
2022-08-24T23:53:27.130Z,10.02
2022-08-24T23:55:54.071Z,12.15
2022-08-24T23:58:21.096Z,9.00
